FYT3247 LIRF-LMML
Flight info
| Callsign | FYT3247 |
|---|---|
| Flight time | N/A |
| Altitude | 31000 |
| Route | PEPIX M727 GIANO DCT MARON L12 GZO DCT |
| Aircraft | A321/M-SDE1FGHIJ1RWXY/S |
Departure
| Time | 2026-05-07 09:42 |
|---|---|
| Airport | Rome–Fiumicino Leonardo da Vinci International Airport (LIRF) |
Arrival
| Time | N/A |
|---|---|
| Airport | Malta International Airport (LMML) |
| Time | Latitude | Longitude | Altitude | Speed | Heading |
|---|---|---|---|---|---|
| 2026-05-07 08:52 | 41.80090 | 12.26152 | 16 ft | 0 kts | 205° |
| 2026-05-07 09:28 | 41.80099 | 12.26158 | 16 ft | 2 kts | 205° |
| 2026-05-07 09:28 | 41.80112 | 12.26166 | 16 ft | 2 kts | 205° |
| 2026-05-07 09:29 | 41.80126 | 12.26174 | 16 ft | 2 kts | 201° |
| 2026-05-07 09:29 | 41.80140 | 12.26182 | 16 ft | 2 kts | 205° |
| 2026-05-07 09:29 | 41.80147 | 12.26187 | 16 ft | 0 kts | 240° |
| 2026-05-07 09:29 | 41.80148 | 12.26195 | 16 ft | 0 kts | 292° |
| 2026-05-07 09:30 | 41.80145 | 12.26202 | 16 ft | 1 kts | 295° |
| 2026-05-07 09:30 | 41.80145 | 12.26203 | 16 ft | 0 kts | 295° |
| 2026-05-07 09:31 | 41.80145 | 12.26202 | 16 ft | 0 kts | 295° |
| 2026-05-07 09:32 | 41.80150 | 12.26191 | 16 ft | 3 kts | 295° |
| 2026-05-07 09:32 | 41.80158 | 12.26167 | 16 ft | 0 kts | 295° |
| 2026-05-07 09:32 | 41.80163 | 12.26152 | 16 ft | 4 kts | 295° |
| 2026-05-07 09:33 | 41.80174 | 12.26122 | 16 ft | 0 kts | 294° |
| 2026-05-07 09:33 | 41.80176 | 12.26115 | 16 ft | 0 kts | 294° |
| 2026-05-07 09:33 | 41.80178 | 12.26110 | 16 ft | 0 kts | 294° |
| 2026-05-07 09:33 | 41.80189 | 12.26080 | 16 ft | 9 kts | 304° |
| 2026-05-07 09:34 | 41.80285 | 12.26078 | 16 ft | 20 kts | 21° |
| 2026-05-07 09:34 | 41.80426 | 12.26160 | 16 ft | 22 kts | 24° |
| 2026-05-07 09:34 | 41.80537 | 12.26284 | 16 ft | 21 kts | 66° |
| 2026-05-07 09:34 | 41.80590 | 12.26468 | 15 ft | 20 kts | 69° |
| 2026-05-07 09:35 | 41.80640 | 12.26650 | 15 ft | 20 kts | 69° |
| 2026-05-07 09:35 | 41.80687 | 12.26815 | 14 ft | 8 kts | 69° |
| 2026-05-07 09:35 | 41.80689 | 12.26823 | 14 ft | 0 kts | 70° |
| 2026-05-07 09:35 | 41.80690 | 12.26827 | 14 ft | 2 kts | 70° |
| 2026-05-07 09:36 | 41.80700 | 12.26864 | 14 ft | 0 kts | 70° |
| 2026-05-07 09:36 | 41.80701 | 12.26869 | 14 ft | 1 kts | 70° |
| 2026-05-07 09:36 | 41.80706 | 12.26887 | 14 ft | 2 kts | 70° |
| 2026-05-07 09:36 | 41.80718 | 12.26930 | 14 ft | 7 kts | 70° |
| 2026-05-07 09:37 | 41.80743 | 12.27024 | 14 ft | 13 kts | 70° |
| 2026-05-07 09:37 | 41.80788 | 12.27129 | 13 ft | 13 kts | 28° |
| 2026-05-07 09:37 | 41.80878 | 12.27108 | 13 ft | 12 kts | 340° |
| 2026-05-07 09:37 | 41.80887 | 12.27103 | 13 ft | 0 kts | 340° |
| 2026-05-07 09:39 | 41.80890 | 12.27102 | 13 ft | 1 kts | 340° |
| 2026-05-07 09:40 | 41.80920 | 12.27087 | 13 ft | 8 kts | 339° |
| 2026-05-07 09:40 | 41.80972 | 12.27043 | 13 ft | 9 kts | 286° |
| 2026-05-07 09:40 | 41.80963 | 12.26954 | 13 ft | 10 kts | 252° |
| 2026-05-07 09:40 | 41.80955 | 12.26921 | 13 ft | 0 kts | 250° |
| 2026-05-07 09:41 | 41.80932 | 12.26836 | 14 ft | 36 kts | 250° |
| 2026-05-07 09:41 | 41.80759 | 12.26208 | 16 ft | 105 kts | 249° |
| 2026-05-07 09:42 | 41.80436 | 12.25033 | 16 ft | 163 kts | 250° |
| 2026-05-07 09:42 | 41.79993 | 12.23470 | 281 ft | 187 kts | 249° |
| 2026-05-07 09:42 | 41.79553 | 12.21842 | 946 ft | 187 kts | 249° |
| 2026-05-07 09:42 | 41.79108 | 12.20234 | 1643 ft | 187 kts | 251° |
| 2026-05-07 09:43 | 41.78904 | 12.18559 | 2254 ft | 186 kts | 271° |
| 2026-05-07 09:43 | 41.78976 | 12.16837 | 2838 ft | 187 kts | 272° |
| 2026-05-07 09:43 | 41.78962 | 12.15105 | 3354 ft | 189 kts | 252° |
| 2026-05-07 09:43 | 41.78202 | 12.13660 | 3668 ft | 201 kts | 211° |
| 2026-05-07 09:44 | 41.76828 | 12.13269 | 3968 ft | 215 kts | 175° |
| 2026-05-07 09:44 | 41.75289 | 12.13510 | 4208 ft | 236 kts | 174° |
| 2026-05-07 09:44 | 41.73632 | 12.13682 | 4040 ft | 234 kts | 176° |
| 2026-05-07 09:44 | 41.72012 | 12.13820 | 4001 ft | 231 kts | 176° |
| 2026-05-07 09:45 | 41.70416 | 12.13955 | 3991 ft | 231 kts | 176° |
| 2026-05-07 09:45 | 41.68807 | 12.14094 | 3985 ft | 231 kts | 176° |
| 2026-05-07 09:45 | 41.67198 | 12.14236 | 3981 ft | 231 kts | 176° |
| 2026-05-07 09:45 | 41.65594 | 12.14380 | 3981 ft | 232 kts | 176° |
| 2026-05-07 09:46 | 41.63971 | 12.14528 | 3979 ft | 232 kts | 176° |
| 2026-05-07 09:46 | 41.62374 | 12.14676 | 3978 ft | 232 kts | 176° |
| 2026-05-07 09:46 | 41.60742 | 12.14830 | 3978 ft | 232 kts | 176° |
| 2026-05-07 09:46 | 41.59133 | 12.14986 | 3976 ft | 231 kts | 176° |
| 2026-05-07 09:47 | 41.57539 | 12.14840 | 3941 ft | 232 kts | 202° |
| 2026-05-07 09:47 | 41.56338 | 12.13507 | 3955 ft | 232 kts | 241° |
| 2026-05-07 09:47 | 41.55926 | 12.11456 | 3975 ft | 233 kts | 270° |
| 2026-05-07 09:47 | 41.56321 | 12.09364 | 3968 ft | 234 kts | 300° |
| 2026-05-07 09:48 | 41.57434 | 12.07798 | 3964 ft | 236 kts | 330° |
| 2026-05-07 09:48 | 41.58988 | 12.07136 | 3971 ft | 237 kts | 351° |
| 2026-05-07 09:48 | 41.60612 | 12.06791 | 3972 ft | 238 kts | 350° |
| 2026-05-07 09:48 | 41.62245 | 12.06420 | 3968 ft | 237 kts | 350° |
| 2026-05-07 09:49 | 41.63859 | 12.06033 | 3966 ft | 237 kts | 349° |
| 2026-05-07 09:49 | 41.65483 | 12.05632 | 3969 ft | 237 kts | 349° |
| 2026-05-07 09:49 | 41.67113 | 12.05223 | 3964 ft | 237 kts | 349° |
| 2026-05-07 09:49 | 41.68718 | 12.04817 | 3961 ft | 236 kts | 349° |
| 2026-05-07 09:50 | 41.70333 | 12.04407 | 3964 ft | 236 kts | 349° |
| 2026-05-07 09:50 | 41.71961 | 12.03992 | 3966 ft | 237 kts | 349° |
| 2026-05-07 09:50 | 41.73592 | 12.03578 | 3803 ft | 238 kts | 349° |
| 2026-05-07 09:50 | 41.75208 | 12.03091 | 3442 ft | 239 kts | 344° |
| 2026-05-07 09:51 | 41.76783 | 12.02455 | 3155 ft | 235 kts | 343° |
| 2026-05-07 09:51 | 41.78340 | 12.01796 | 3000 ft | 234 kts | 342° |
| 2026-05-07 09:51 | 41.79879 | 12.01142 | 2852 ft | 234 kts | 343° |
| 2026-05-07 09:51 | 41.81443 | 12.00478 | 2709 ft | 233 kts | 343° |
| 2026-05-07 09:52 | 41.82982 | 11.99825 | 2558 ft | 232 kts | 343° |
| 2026-05-07 09:52 | 41.84526 | 11.99171 | 2479 ft | 231 kts | 343° |
| 2026-05-07 09:52 | 41.86058 | 11.98524 | 2472 ft | 231 kts | 343° |
| 2026-05-07 09:52 | 41.87585 | 11.97879 | 2467 ft | 231 kts | 343° |
| 2026-05-07 09:53 | 41.89113 | 11.97233 | 2465 ft | 230 kts | 343° |
| 2026-05-07 09:53 | 41.90241 | 11.96836 | 2455 ft | 230 kts | 354° |
| 2026-05-07 09:57 | 41.91208 | 11.96916 | 2427 ft | 228 kts | 19° |
| 2026-05-07 09:57 | 41.92444 | 11.98139 | 2448 ft | 227 kts | 58° |
| 2026-05-07 09:57 | 41.93006 | 12.00087 | 2470 ft | 216 kts | 78° |
| 2026-05-07 09:57 | 41.93331 | 12.01965 | 2543 ft | 206 kts | 77° |
| 2026-05-07 09:58 | 41.93662 | 12.03834 | 2506 ft | 206 kts | 77° |
| 2026-05-07 09:58 | 41.93998 | 12.05719 | 2488 ft | 207 kts | 77° |
| 2026-05-07 09:58 | 41.94331 | 12.07575 | 2477 ft | 204 kts | 77° |
| 2026-05-07 09:58 | 41.94649 | 12.09335 | 2484 ft | 186 kts | 77° |
| 2026-05-07 09:59 | 41.94954 | 12.11025 | 2470 ft | 184 kts | 77° |
| 2026-05-07 09:59 | 41.95253 | 12.12692 | 2471 ft | 184 kts | 77° |
| 2026-05-07 09:59 | 41.95549 | 12.14343 | 2469 ft | 184 kts | 77° |
| 2026-05-07 09:59 | 41.95853 | 12.16034 | 2469 ft | 185 kts | 77° |
| 2026-05-07 10:00 | 41.96151 | 12.17697 | 2467 ft | 185 kts | 77° |
| 2026-05-07 10:00 | 41.96391 | 12.19391 | 2458 ft | 186 kts | 90° |
| 2026-05-07 10:00 | 41.95939 | 12.20996 | 2325 ft | 186 kts | 129° |
| 2026-05-07 10:00 | 41.94874 | 12.21918 | 2106 ft | 186 kts | 157° |
| 2026-05-07 10:01 | 41.93647 | 12.22438 | 1863 ft | 185 kts | 163° |
| 2026-05-07 10:01 | 41.92401 | 12.22889 | 1614 ft | 186 kts | 163° |
| 2026-05-07 10:01 | 41.91165 | 12.23376 | 1369 ft | 186 kts | 162° |
| 2026-05-07 10:01 | 41.89944 | 12.23891 | 1114 ft | 176 kts | 162° |
| 2026-05-07 10:02 | 41.88835 | 12.24364 | 873 ft | 158 kts | 161° |
| 2026-05-07 10:02 | 41.87829 | 12.24789 | 671 ft | 149 kts | 162° |
| 2026-05-07 10:02 | 41.86853 | 12.25199 | 498 ft | 148 kts | 162° |
| 2026-05-07 10:02 | 41.85864 | 12.25614 | 312 ft | 148 kts | 162° |
| 2026-05-07 10:03 | 41.84885 | 12.26034 | 131 ft | 148 kts | 162° |
| 2026-05-07 10:03 | 41.83901 | 12.26433 | 23 ft | 143 kts | 162° |
| 2026-05-07 10:03 | 41.83069 | 12.26788 | 11 ft | 102 kts | 163° |
| 2026-05-07 10:03 | 41.82556 | 12.27005 | 11 ft | 53 kts | 161° |
| 2026-05-07 10:04 | 41.82286 | 12.27115 | 11 ft | 36 kts | 165° |
| 2026-05-07 10:04 | 41.82043 | 12.27132 | 11 ft | 34 kts | 189° |
| 2026-05-07 10:04 | 41.81840 | 12.27037 | 11 ft | 21 kts | 239° |
| 2026-05-07 10:04 | 41.81763 | 12.26922 | 11 ft | 16 kts | 197° |
| 2026-05-07 10:05 | 41.81651 | 12.26922 | 12 ft | 11 kts | 163° |
| 2026-05-07 10:05 | 41.81640 | 12.26927 | 12 ft | 0 kts | 164° |